sensor_id;sensor_type;location;lat;lon;timestamp;P1;durP1;ratioP1;P2;durP2;ratioP2
757;SDS011;363;48.764;9.172;2023-12-20T00:01:54;1.33;;;1.23;;
757;SDS011;363;48.764;9.172;2023-12-20T00:04:20;2.50;;;1.27;;
757;SDS011;363;48.764;9.172;2023-12-20T00:06:45;1.40;;;1.27;;
757;SDS011;363;48.764;9.172;2023-12-20T00:09:11;1.50;;;1.40;;
757;SDS011;363;48.764;9.172;2023-12-20T00:11:46;1.60;;;1.50;;
757;SDS011;363;48.764;9.172;2023-12-20T00:14:12;1.30;;;1.20;;
757;SDS011;363;48.764;9.172;2023-12-20T00:16:40;1.60;;;1.03;;
757;SDS011;363;48.764;9.172;2023-12-20T00:19:08;1.33;;;1.23;;
757;SDS011;363;48.764;9.172;2023-12-20T00:21:34;1.37;;;1.10;;
757;SDS011;363;48.764;9.172;2023-12-20T00:24:03;1.98;;;1.50;;
757;SDS011;363;48.764;9.172;2023-12-20T00:26:28;1.45;;;1.27;;
757;SDS011;363;48.764;9.172;2023-12-20T00:28:54;1.43;;;1.17;;
757;SDS011;363;48.764;9.172;2023-12-20T00:31:20;1.30;;;1.20;;
757;SDS011;363;48.764;9.172;2023-12-20T00:33:48;1.15;;;1.00;;
757;SDS011;363;48.764;9.172;2023-12-20T00:36:14;1.10;;;0.97;;
757;SDS011;363;48.764;9.172;2023-12-20T00:38:47;1.27;;;1.17;;
757;SDS011;363;48.764;9.172;2023-12-20T00:41:31;3.55;;;1.40;;
757;SDS011;363;48.764;9.172;2023-12-20T00:44:02;1.08;;;0.98;;
757;SDS011;363;48.764;9.172;2023-12-20T00:46:38;3.15;;;1.55;;
757;SDS011;363;48.764;9.172;2023-12-20T00:49:04;1.00;;;0.90;;
757;SDS011;363;48.764;9.172;2023-12-20T00:51:30;1.35;;;1.00;;
757;SDS011;363;48.764;9.172;2023-12-20T00:53:55;1.10;;;1.00;;
757;SDS011;363;48.764;9.172;2023-12-20T00:56:22;0.88;;;0.85;;
757;SDS011;363;48.764;9.172;2023-12-20T00:58:49;1.70;;;1.40;;
757;SDS011;363;48.764;9.172;2023-12-20T01:01:15;1.20;;;1.10;;
757;SDS011;363;48.764;9.172;2023-12-20T01:03:41;1.75;;;1.20;;
757;SDS011;363;48.764;9.172;2023-12-20T01:06:09;1.10;;;1.00;;
757;SDS011;363;48.764;9.172;2023-12-20T01:08:37;0.82;;;0.82;;
757;SDS011;363;48.764;9.172;2023-12-20T01:11:10;1.65;;;1.17;;
757;SDS011;363;48.764;9.172;2023-12-20T01:13:44;1.30;;;1.20;;
757;SDS011;363;48.764;9.172;2023-12-20T01:16:15;1.20;;;1.08;;
757;SDS011;363;48.764;9.172;2023-12-20T01:18:43;1.33;;;1.23;;
757;SDS011;363;48.764;9.172;2023-12-20T01:21:12;1.70;;;1.13;;
757;SDS011;363;48.764;9.172;2023-12-20T01:23:37;2.03;;;1.23;;
757;SDS011;363;48.764;9.172;2023-12-20T01:26:03;1.43;;;1.20;;
757;SDS011;363;48.764;9.172;2023-12-20T01:28:32;1.15;;;1.05;;
757;SDS011;363;48.764;9.172;2023-12-20T01:31:01;1.25;;;1.08;;
757;SDS011;363;48.764;9.172;2023-12-20T01:33:33;1.25;;;1.08;;
757;SDS011;363;48.764;9.172;2023-12-20T01:36:02;1.30;;;1.20;;
757;SDS011;363;48.764;9.172;2023-12-20T01:38:28;2.40;;;1.23;;
757;SDS011;363;48.764;9.172;2023-12-20T01:40:56;1.87;;;1.50;;
757;SDS011;363;48.764;9.172;2023-12-20T01:43:22;1.35;;;1.25;;
757;SDS011;363;48.764;9.172;2023-12-20T01:45:48;3.80;;;1.63;;
757;SDS011;363;48.764;9.172;2023-12-20T01:48:14;1.67;;;1.20;;
757;SDS011;363;48.764;9.172;2023-12-20T01:50:48;1.75;;;1.50;;
757;SDS011;363;48.764;9.172;2023-12-20T01:53:14;1.83;;;1.53;;
757;SDS011;363;48.764;9.172;2023-12-20T01:55:43;1.20;;;0.98;;
757;SDS011;363;48.764;9.172;2023-12-20T01:58:12;1.30;;;1.00;;
757;SDS011;363;48.764;9.172;2023-12-20T02:00:39;1.10;;;1.00;;
757;SDS011;363;48.764;9.172;2023-12-20T02:03:07;1.10;;;1.00;;
757;SDS011;363;48.764;9.172;2023-12-20T02:05:34;1.17;;;1.08;;
757;SDS011;363;48.764;9.172;2023-12-20T02:08:06;0.90;;;0.90;;
757;SDS011;363;48.764;9.172;2023-12-20T02:10:32;1.10;;;1.00;;
757;SDS011;363;48.764;9.172;2023-12-20T02:12:58;1.03;;;0.93;;
757;SDS011;363;48.764;9.172;2023-12-20T02:15:26;1.20;;;0.90;;
757;SDS011;363;48.764;9.172;2023-12-20T02:17:52;1.60;;;1.13;;
757;SDS011;363;48.764;9.172;2023-12-20T02:20:18;1.23;;;1.08;;
757;SDS011;363;48.764;9.172;2023-12-20T02:22:44;1.60;;;1.37;;
757;SDS011;363;48.764;9.172;2023-12-20T02:25:10;1.77;;;1.43;;
757;SDS011;363;48.764;9.172;2023-12-20T02:27:42;2.83;;;1.67;;
757;SDS011;363;48.764;9.172;2023-12-20T02:30:08;2.22;;;1.40;;
757;SDS011;363;48.764;9.172;2023-12-20T02:32:35;3.17;;;1.65;;
757;SDS011;363;48.764;9.172;2023-12-20T02:35:00;1.60;;;1.50;;
757;SDS011;363;48.764;9.172;2023-12-20T02:37:26;1.40;;;1.30;;
757;SDS011;363;48.764;9.172;2023-12-20T02:39:52;1.30;;;1.20;;
757;SDS011;363;48.764;9.172;2023-12-20T02:42:18;1.50;;;1.40;;
757;SDS011;363;48.764;9.172;2023-12-20T02:44:43;1.60;;;1.20;;
757;SDS011;363;48.764;9.172;2023-12-20T02:47:09;1.90;;;1.40;;
757;SDS011;363;48.764;9.172;2023-12-20T02:49:35;1.30;;;1.20;;
757;SDS011;363;48.764;9.172;2023-12-20T02:52:00;1.67;;;1.43;;
757;SDS011;363;48.764;9.172;2023-12-20T02:54:26;1.87;;;1.67;;
757;SDS011;363;48.764;9.172;2023-12-20T02:56:54;1.50;;;1.40;;
757;SDS011;363;48.764;9.172;2023-12-20T02:59:27;1.60;;;1.50;;
757;SDS011;363;48.764;9.172;2023-12-20T03:01:55;2.22;;;1.20;;
757;SDS011;363;48.764;9.172;2023-12-20T03:04:20;1.10;;;1.00;;
757;SDS011;363;48.764;9.172;2023-12-20T03:06:46;1.30;;;1.20;;
757;SDS011;363;48.764;9.172;2023-12-20T03:09:12;1.20;;;1.10;;
757;SDS011;363;48.764;9.172;2023-12-20T03:11:38;1.42;;;1.33;;
757;SDS011;363;48.764;9.172;2023-12-20T03:14:04;1.20;;;1.10;;
757;SDS011;363;48.764;9.172;2023-12-20T03:16:30;1.10;;;1.00;;
757;SDS011;363;48.764;9.172;2023-12-20T03:18:58;2.35;;;1.30;;
757;SDS011;363;48.764;9.172;2023-12-20T03:21:23;1.37;;;1.27;;
757;SDS011;363;48.764;9.172;2023-12-20T03:23:49;1.30;;;1.20;;
757;SDS011;363;48.764;9.172;2023-12-20T03:26:16;1.38;;;1.20;;
757;SDS011;363;48.764;9.172;2023-12-20T03:28:41;1.70;;;1.50;;
757;SDS011;363;48.764;9.172;2023-12-20T03:31:07;1.93;;;1.73;;
757;SDS011;363;48.764;9.172;2023-12-20T03:33:34;1.90;;;1.80;;
757;SDS011;363;48.764;9.172;2023-12-20T03:36:01;2.10;;;1.40;;
757;SDS011;363;48.764;9.172;2023-12-20T03:42:08;1.10;;;1.10;;
757;SDS011;363;48.764;9.172;2023-12-20T05:54:03;0.60;;;0.50;;
757;SDS011;363;48.764;9.172;2023-12-20T05:59:51;3.47;;;1.75;;
757;SDS011;363;48.764;9.172;2023-12-20T06:02:43;0.80;;;0.60;;
757;SDS011;363;48.764;9.172;2023-12-20T06:05:13;0.90;;;0.70;;
757;SDS011;363;48.764;9.172;2023-12-20T06:07:51;1.25;;;0.70;;
757;SDS011;363;48.764;9.172;2023-12-20T06:16:03;0.90;;;0.80;;
757;SDS011;363;48.764;9.172;2023-12-20T06:25:49;1.83;;;1.05;;
757;SDS011;363;48.764;9.172;2023-12-20T06:31:50;1.80;;;1.10;;
757;SDS011;363;48.764;9.172;2023-12-20T08:29:19;4.13;;;3.38;;
757;SDS011;363;48.764;9.172;2023-12-20T08:31:45;3.90;;;3.25;;
757;SDS011;363;48.764;9.172;2023-12-20T08:34:14;3.30;;;2.90;;
757;SDS011;363;48.764;9.172;2023-12-20T08:36:40;4.45;;;2.67;;
757;SDS011;363;48.764;9.172;2023-12-20T08:45:17;4.28;;;3.20;;
757;SDS011;363;48.764;9.172;2023-12-20T08:47:43;3.23;;;2.90;;
757;SDS011;363;48.764;9.172;2023-12-20T08:50:10;3.50;;;3.20;;
757;SDS011;363;48.764;9.172;2023-12-20T08:52:40;3.10;;;2.80;;
757;SDS011;363;48.764;9.172;2023-12-20T08:55:06;5.40;;;4.70;;
757;SDS011;363;48.764;9.172;2023-12-20T08:57:32;3.20;;;2.90;;
757;SDS011;363;48.764;9.172;2023-12-20T08:59:58;3.55;;;3.25;;
757;SDS011;363;48.764;9.172;2023-12-20T09:02:27;2.83;;;2.63;;
757;SDS011;363;48.764;9.172;2023-12-20T09:28:17;3.17;;;2.90;;
757;SDS011;363;48.764;9.172;2023-12-20T09:30:43;2.43;;;2.23;;
757;SDS011;363;48.764;9.172;2023-12-20T09:33:10;2.75;;;2.38;;
757;SDS011;363;48.764;9.172;2023-12-20T09:35:36;6.53;;;2.30;;
757;SDS011;363;48.764;9.172;2023-12-20T09:38:03;3.35;;;2.78;;
757;SDS011;363;48.764;9.172;2023-12-20T09:40:29;3.33;;;2.80;;
757;SDS011;363;48.764;9.172;2023-12-20T09:42:57;3.15;;;2.28;;
757;SDS011;363;48.764;9.172;2023-12-20T09:45:31;3.00;;;1.85;;
757;SDS011;363;48.764;9.172;2023-12-20T09:47:58;2.85;;;1.90;;
757;SDS011;363;48.764;9.172;2023-12-20T09:51:07;2.40;;;1.75;;
757;SDS011;363;48.764;9.172;2023-12-20T09:53:33;3.77;;;2.33;;
757;SDS011;363;48.764;9.172;2023-12-20T09:56:45;3.00;;;1.95;;
757;SDS011;363;48.764;9.172;2023-12-20T09:59:14;3.50;;;2.00;;
757;SDS011;363;48.764;9.172;2023-12-20T10:01:46;2.73;;;2.00;;
757;SDS011;363;48.764;9.172;2023-12-20T10:04:13;2.30;;;2.10;;
757;SDS011;363;48.764;9.172;2023-12-20T10:10:04;2.22;;;1.10;;
757;SDS011;363;48.764;9.172;2023-12-20T10:12:33;2.58;;;1.58;;
757;SDS011;363;48.764;9.172;2023-12-20T10:14:58;2.53;;;1.50;;
757;SDS011;363;48.764;9.172;2023-12-20T10:20:39;4.72;;;1.60;;
757;SDS011;363;48.764;9.172;2023-12-20T10:23:06;1.85;;;1.63;;
757;SDS011;363;48.764;9.172;2023-12-20T10:25:37;3.50;;;2.00;;
757;SDS011;363;48.764;9.172;2023-12-20T10:28:15;2.28;;;1.58;;
757;SDS011;363;48.764;9.172;2023-12-20T10:30:46;2.55;;;1.60;;
757;SDS011;363;48.764;9.172;2023-12-20T10:33:19;4.25;;;1.52;;
757;SDS011;363;48.764;9.172;2023-12-20T10:35:52;3.75;;;1.58;;
757;SDS011;363;48.764;9.172;2023-12-20T10:38:19;4.35;;;1.88;;
757;SDS011;363;48.764;9.172;2023-12-20T10:40:45;4.07;;;2.07;;
757;SDS011;363;48.764;9.172;2023-12-20T10:43:11;2.53;;;1.42;;
757;SDS011;363;48.764;9.172;2023-12-20T10:45:37;3.03;;;1.90;;
757;SDS011;363;48.764;9.172;2023-12-20T10:48:14;2.20;;;1.77;;
757;SDS011;363;48.764;9.172;2023-12-20T10:50:52;2.25;;;1.70;;
757;SDS011;363;48.764;9.172;2023-12-20T10:53:23;2.25;;;1.60;;
757;SDS011;363;48.764;9.172;2023-12-20T10:55:52;3.75;;;1.83;;
757;SDS011;363;48.764;9.172;2023-12-20T10:58:24;2.22;;;1.48;;
757;SDS011;363;48.764;9.172;2023-12-20T11:00:57;2.10;;;1.75;;
757;SDS011;363;48.764;9.172;2023-12-20T11:03:26;4.93;;;1.70;;
757;SDS011;363;48.764;9.172;2023-12-20T11:06:13;1.85;;;1.75;;
757;SDS011;363;48.764;9.172;2023-12-20T11:08:47;3.70;;;1.98;;
757;SDS011;363;48.764;9.172;2023-12-20T11:14:05;3.30;;;2.00;;
757;SDS011;363;48.764;9.172;2023-12-20T11:16:37;4.53;;;2.00;;
757;SDS011;363;48.764;9.172;2023-12-20T11:35:41;2.70;;;1.73;;
757;SDS011;363;48.764;9.172;2023-12-20T11:39:08;1.83;;;1.70;;
757;SDS011;363;48.764;9.172;2023-12-20T11:50:25;4.60;;;2.75;;
757;SDS011;363;48.764;9.172;2023-12-20T11:52:51;5.80;;;1.90;;
757;SDS011;363;48.764;9.172;2023-12-20T11:58:39;4.07;;;2.83;;
757;SDS011;363;48.764;9.172;2023-12-20T12:01:04;1.98;;;1.55;;
757;SDS011;363;48.764;9.172;2023-12-20T12:03:35;2.67;;;1.90;;
757;SDS011;363;48.764;9.172;2023-12-20T12:06:22;3.10;;;1.80;;
757;SDS011;363;48.764;9.172;2023-12-20T12:08:49;3.13;;;1.75;;
757;SDS011;363;48.764;9.172;2023-12-20T12:11:17;3.40;;;2.33;;
757;SDS011;363;48.764;9.172;2023-12-20T12:13:46;3.53;;;2.30;;
757;SDS011;363;48.764;9.172;2023-12-20T12:16:20;4.50;;;2.40;;
757;SDS011;363;48.764;9.172;2023-12-20T12:18:56;5.30;;;2.13;;
757;SDS011;363;48.764;9.172;2023-12-20T12:21:29;3.15;;;1.80;;
757;SDS011;363;48.764;9.172;2023-12-20T12:24:05;3.50;;;1.60;;
757;SDS011;363;48.764;9.172;2023-12-20T12:26:31;2.60;;;1.75;;
757;SDS011;363;48.764;9.172;2023-12-20T12:29:17;4.32;;;2.05;;
757;SDS011;363;48.764;9.172;2023-12-20T12:32:00;5.47;;;2.08;;
757;SDS011;363;48.764;9.172;2023-12-20T12:35:05;5.47;;;3.25;;
757;SDS011;363;48.764;9.172;2023-12-20T12:37:34;5.45;;;1.80;;
757;SDS011;363;48.764;9.172;2023-12-20T12:49:06;3.70;;;2.28;;
757;SDS011;363;48.764;9.172;2023-12-20T12:54:40;6.18;;;1.60;;
757;SDS011;363;48.764;9.172;2023-12-20T12:57:10;3.65;;;2.00;;
757;SDS011;363;48.764;9.172;2023-12-20T13:02:53;1.75;;;1.35;;
757;SDS011;363;48.764;9.172;2023-12-20T13:05:20;2.57;;;1.70;;
757;SDS011;363;48.764;9.172;2023-12-20T13:07:49;2.25;;;1.50;;
757;SDS011;363;48.764;9.172;2023-12-20T13:10:14;2.53;;;1.80;;
757;SDS011;363;48.764;9.172;2023-12-20T13:12:41;2.70;;;1.80;;
757;SDS011;363;48.764;9.172;2023-12-20T13:15:07;2.03;;;1.58;;
757;SDS011;363;48.764;9.172;2023-12-20T13:17:34;8.15;;;4.55;;
757;SDS011;363;48.764;9.172;2023-12-20T13:19:59;1.73;;;1.50;;
757;SDS011;363;48.764;9.172;2023-12-20T13:22:25;2.97;;;1.43;;
757;SDS011;363;48.764;9.172;2023-12-20T13:24:50;4.10;;;1.33;;
757;SDS011;363;48.764;9.172;2023-12-20T13:27:16;4.30;;;1.43;;
757;SDS011;363;48.764;9.172;2023-12-20T13:29:45;2.83;;;1.52;;
757;SDS011;363;48.764;9.172;2023-12-20T13:32:11;2.58;;;1.60;;
757;SDS011;363;48.764;9.172;2023-12-20T13:34:36;3.50;;;1.73;;
757;SDS011;363;48.764;9.172;2023-12-20T13:37:02;2.13;;;1.70;;
757;SDS011;363;48.764;9.172;2023-12-20T13:39:29;3.40;;;1.70;;
757;SDS011;363;48.764;9.172;2023-12-20T13:41:56;2.83;;;1.20;;
757;SDS011;363;48.764;9.172;2023-12-20T13:44:22;5.77;;;1.40;;
757;SDS011;363;48.764;9.172;2023-12-20T13:46:47;4.23;;;1.90;;
757;SDS011;363;48.764;9.172;2023-12-20T13:49:15;3.40;;;1.50;;
757;SDS011;363;48.764;9.172;2023-12-20T13:51:40;1.40;;;1.30;;
757;SDS011;363;48.764;9.172;2023-12-20T13:54:06;2.47;;;1.20;;
757;SDS011;363;48.764;9.172;2023-12-20T13:56:31;6.20;;;1.23;;
757;SDS011;363;48.764;9.172;2023-12-20T13:58:58;1.85;;;1.65;;
757;SDS011;363;48.764;9.172;2023-12-20T14:01:25;4.20;;;1.42;;
757;SDS011;363;48.764;9.172;2023-12-20T14:03:51;2.33;;;1.30;;
757;SDS011;363;48.764;9.172;2023-12-20T14:06:18;4.30;;;2.00;;
757;SDS011;363;48.764;9.172;2023-12-20T14:08:44;3.90;;;1.30;;
757;SDS011;363;48.764;9.172;2023-12-20T14:11:10;3.70;;;1.30;;
757;SDS011;363;48.764;9.172;2023-12-20T14:13:36;3.07;;;1.40;;
757;SDS011;363;48.764;9.172;2023-12-20T14:16:08;3.35;;;1.40;;
757;SDS011;363;48.764;9.172;2023-12-20T14:18:35;5.35;;;1.52;;
757;SDS011;363;48.764;9.172;2023-12-20T14:21:01;7.20;;;2.57;;
757;SDS011;363;48.764;9.172;2023-12-20T14:23:27;2.17;;;1.50;;
757;SDS011;363;48.764;9.172;2023-12-20T14:25:52;3.58;;;1.50;;
757;SDS011;363;48.764;9.172;2023-12-20T14:28:18;3.57;;;1.30;;
757;SDS011;363;48.764;9.172;2023-12-20T14:30:45;3.15;;;1.67;;
757;SDS011;363;48.764;9.172;2023-12-20T14:33:10;3.13;;;1.23;;
757;SDS011;363;48.764;9.172;2023-12-20T14:35:36;2.40;;;1.10;;
757;SDS011;363;48.764;9.172;2023-12-20T14:38:02;2.90;;;1.40;;
757;SDS011;363;48.764;9.172;2023-12-20T14:40:29;2.65;;;1.30;;
757;SDS011;363;48.764;9.172;2023-12-20T14:42:54;3.83;;;1.50;;
757;SDS011;363;48.764;9.172;2023-12-20T14:45:20;2.20;;;1.10;;
757;SDS011;363;48.764;9.172;2023-12-20T14:47:45;3.33;;;1.90;;
757;SDS011;363;48.764;9.172;2023-12-20T14:50:12;3.67;;;1.40;;
757;SDS011;363;48.764;9.172;2023-12-20T14:52:43;4.20;;;2.35;;
757;SDS011;363;48.764;9.172;2023-12-20T14:55:10;2.10;;;1.55;;
757;SDS011;363;48.764;9.172;2023-12-20T14:57:35;2.50;;;1.80;;
757;SDS011;363;48.764;9.172;2023-12-20T15:00:01;4.50;;;1.37;;
757;SDS011;363;48.764;9.172;2023-12-20T15:02:27;1.42;;;1.20;;
757;SDS011;363;48.764;9.172;2023-12-20T15:04:52;2.43;;;1.53;;
757;SDS011;363;48.764;9.172;2023-12-20T15:07:18;4.20;;;1.70;;
757;SDS011;363;48.764;9.172;2023-12-20T15:12:50;3.08;;;2.08;;
757;SDS011;363;48.764;9.172;2023-12-20T15:15:16;2.60;;;1.70;;
757;SDS011;363;48.764;9.172;2023-12-20T15:17:42;4.75;;;1.52;;
757;SDS011;363;48.764;9.172;2023-12-20T15:20:25;2.20;;;1.60;;
757;SDS011;363;48.764;9.172;2023-12-20T15:23:09;2.85;;;1.70;;
757;SDS011;363;48.764;9.172;2023-12-20T16:01:43;3.85;;;1.80;;
757;SDS011;363;48.764;9.172;2023-12-20T17:01:44;2.53;;;1.55;;
757;SDS011;363;48.764;9.172;2023-12-20T17:04:10;2.20;;;1.63;;
757;SDS011;363;48.764;9.172;2023-12-20T17:06:39;5.65;;;2.17;;
757;SDS011;363;48.764;9.172;2023-12-20T17:09:06;2.35;;;1.55;;
757;SDS011;363;48.764;9.172;2023-12-20T17:15:19;2.10;;;1.60;;
757;SDS011;363;48.764;9.172;2023-12-20T17:18:41;1.73;;;1.50;;
757;SDS011;363;48.764;9.172;2023-12-20T17:21:20;6.07;;;2.90;;
757;SDS011;363;48.764;9.172;2023-12-20T17:37:55;4.10;;;1.83;;
757;SDS011;363;48.764;9.172;2023-12-20T17:40:22;2.85;;;2.33;;
757;SDS011;363;48.764;9.172;2023-12-20T17:43:27;3.65;;;2.17;;
757;SDS011;363;48.764;9.172;2023-12-20T18:34:45;2.60;;;1.35;;
757;SDS011;363;48.764;9.172;2023-12-20T20:49:10;2.40;;;1.42;;
757;SDS011;363;48.764;9.172;2023-12-20T21:38:51;1.60;;;1.20;;
757;SDS011;363;48.764;9.172;2023-12-20T21:41:16;3.17;;;1.40;;
757;SDS011;363;48.764;9.172;2023-12-20T21:43:42;2.10;;;1.43;;
757;SDS011;363;48.764;9.172;2023-12-20T21:46:08;2.27;;;1.47;;
757;SDS011;363;48.764;9.172;2023-12-20T21:48:33;2.20;;;1.20;;
757;SDS011;363;48.764;9.172;2023-12-20T21:50:59;1.50;;;1.40;;
757;SDS011;363;48.764;9.172;2023-12-20T21:53:24;2.33;;;1.17;;
757;SDS011;363;48.764;9.172;2023-12-20T21:55:50;2.93;;;1.70;;
757;SDS011;363;48.764;9.172;2023-12-20T21:58:15;1.87;;;1.50;;
757;SDS011;363;48.764;9.172;2023-12-20T22:00:41;1.70;;;1.60;;
757;SDS011;363;48.764;9.172;2023-12-20T22:03:07;2.93;;;1.43;;
757;SDS011;363;48.764;9.172;2023-12-20T22:05:36;2.38;;;1.13;;
757;SDS011;363;48.764;9.172;2023-12-20T22:08:02;4.38;;;1.30;;
757;SDS011;363;48.764;9.172;2023-12-20T22:10:28;1.83;;;1.25;;
757;SDS011;363;48.764;9.172;2023-12-20T22:12:54;1.43;;;1.20;;
757;SDS011;363;48.764;9.172;2023-12-20T22:15:20;3.10;;;1.53;;
757;SDS011;363;48.764;9.172;2023-12-20T22:17:45;3.30;;;1.80;;
757;SDS011;363;48.764;9.172;2023-12-20T22:20:11;1.93;;;1.50;;
757;SDS011;363;48.764;9.172;2023-12-20T22:22:36;1.73;;;1.20;;
757;SDS011;363;48.764;9.172;2023-12-20T22:25:02;3.67;;;1.20;;
757;SDS011;363;48.764;9.172;2023-12-20T22:27:28;2.90;;;1.63;;
757;SDS011;363;48.764;9.172;2023-12-20T22:29:54;1.20;;;1.10;;
757;SDS011;363;48.764;9.172;2023-12-20T22:32:19;2.13;;;1.20;;
757;SDS011;363;48.764;9.172;2023-12-20T22:34:45;1.63;;;1.53;;
757;SDS011;363;48.764;9.172;2023-12-20T22:37:10;1.47;;;1.33;;
757;SDS011;363;48.764;9.172;2023-12-20T22:39:36;1.60;;;1.40;;
757;SDS011;363;48.764;9.172;2023-12-20T22:42:02;1.37;;;1.27;;
757;SDS011;363;48.764;9.172;2023-12-20T22:44:27;1.92;;;1.40;;
757;SDS011;363;48.764;9.172;2023-12-20T22:46:53;2.43;;;2.03;;
757;SDS011;363;48.764;9.172;2023-12-20T22:49:18;2.00;;;1.13;;
757;SDS011;363;48.764;9.172;2023-12-20T22:51:44;4.57;;;1.83;;
757;SDS011;363;48.764;9.172;2023-12-20T22:54:09;1.40;;;1.20;;
757;SDS011;363;48.764;9.172;2023-12-20T22:56:35;1.40;;;1.30;;
757;SDS011;363;48.764;9.172;2023-12-20T22:59:00;2.43;;;1.20;;
757;SDS011;363;48.764;9.172;2023-12-20T23:01:26;2.33;;;1.10;;
757;SDS011;363;48.764;9.172;2023-12-20T23:03:51;1.53;;;1.30;;
757;SDS011;363;48.764;9.172;2023-12-20T23:06:17;1.30;;;1.20;;
757;SDS011;363;48.764;9.172;2023-12-20T23:08:42;1.60;;;1.40;;
757;SDS011;363;48.764;9.172;2023-12-20T23:11:08;2.20;;;1.73;;
757;SDS011;363;48.764;9.172;2023-12-20T23:13:34;2.70;;;1.20;;
757;SDS011;363;48.764;9.172;2023-12-20T23:15:59;1.53;;;1.43;;
757;SDS011;363;48.764;9.172;2023-12-20T23:18:24;2.60;;;1.20;;
757;SDS011;363;48.764;9.172;2023-12-20T23:20:50;1.70;;;1.20;;
757;SDS011;363;48.764;9.172;2023-12-20T23:23:16;2.83;;;1.40;;
757;SDS011;363;48.764;9.172;2023-12-20T23:25:41;1.33;;;1.20;;
757;SDS011;363;48.764;9.172;2023-12-20T23:28:09;3.22;;;1.42;;
757;SDS011;363;48.764;9.172;2023-12-20T23:30:34;1.90;;;1.10;;
757;SDS011;363;48.764;9.172;2023-12-20T23:33:02;1.23;;;1.10;;
757;SDS011;363;48.764;9.172;2023-12-20T23:35:28;3.93;;;1.70;;
757;SDS011;363;48.764;9.172;2023-12-20T23:37:53;1.53;;;1.23;;
757;SDS011;363;48.764;9.172;2023-12-20T23:40:19;1.30;;;1.20;;
757;SDS011;363;48.764;9.172;2023-12-20T23:42:44;2.50;;;1.70;;
757;SDS011;363;48.764;9.172;2023-12-20T23:45:10;2.20;;;1.23;;
757;SDS011;363;48.764;9.172;2023-12-20T23:47:35;2.47;;;1.30;;
757;SDS011;363;48.764;9.172;2023-12-20T23:50:01;2.35;;;1.13;;
757;SDS011;363;48.764;9.172;2023-12-20T23:52:27;2.33;;;1.30;;
757;SDS011;363;48.764;9.172;2023-12-20T23:54:53;1.70;;;1.03;;
757;SDS011;363;48.764;9.172;2023-12-20T23:57:18;1.00;;;0.83;;
757;SDS011;363;48.764;9.172;2023-12-20T23:59:44;1.07;;;0.90;;
